Goldsboro, Maryland
Current Conditions -  °F | °C
As of 10:58 AM on Thursday 30 Oct 2014 (Local Time) from KDOV Reporting Station
Overcast Overcast  
Wind Chill: 53°   Ceiling: 7000
Heat Index: 53°   Visibility: 10mi
Dew Point: 44°   Wind: 10mph
Humidity: 72%   Direction: 330°NNW
Pressure: 30.02"   Gusts: NA
Location:  39.03°N, 75.79°W
Report Text: KDOV 301458Z AUTO 33009KT 10SM OVC070 11/07 A3002 RMK AO2 SLP169 T01140065 51010
Loading
Personal Weather Stations






























Interactive Weather Map
Tropical Storm Tracking
New forecast layout! Learn more

10-Day Weather Forecast

Advertisements
Track Severe Weather on mobile